Map

Track Data

SID SEASON NUMBER BASIN SUBBASIN NAME ISO_TIME NATURE LAT LON WMO_WIND WMO_PRES WMO_AGENCY TRACK_TYPE DIST2LAND LANDFALL IFLAG USA_AGENCY USA_ATCF_ID USA_LAT USA_LON USA_RECORD USA_STATUS USA_WIND USA_PRES USA_SSHS USA_R34_NE USA_R34_SE USA_R34_SW USA_R34_NW USA_R50_NE USA_R50_SE USA_R50_SW USA_R50_NW USA_R64_NE USA_R64_SE USA_R64_SW USA_R64_NW USA_POCI USA_ROCI USA_RMW USA_EYE TOKYO_LAT TOKYO_LON TOKYO_GRADE TOKYO_WIND TOKYO_PRES TOKYO_R50_DIR TOKYO_R50_LONG TOKYO_R50_SHORT TOKYO_R30_DIR TOKYO_R30_LONG TOKYO_R30_SHORT TOKYO_LAND CMA_LAT CMA_LON CMA_CAT CMA_WIND CMA_PRES HKO_LAT HKO_LON HKO_CAT HKO_WIND HKO_PRES NEWDELHI_LAT NEWDELHI_LON NEWDELHI_GRADE NEWDELHI_WIND NEWDELHI_PRES NEWDELHI_CI NEWDELHI_DP NEWDELHI_POCI REUNION_LAT REUNION_LON REUNION_TYPE REUNION_WIND REUNION_PRES REUNION_TNUM REUNION_CI REUNION_RMW REUNION_R34_NE REUNION_R34_SE REUNION_R34_SW REUNION_R34_NW REUNION_R50_NE REUNION_R50_SE REUNION_R50_SW REUNION_R50_NW REUNION_R64_NE REUNION_R64_SE REUNION_R64_SW REUNION_R64_NW BOM_LAT BOM_LON BOM_TYPE BOM_WIND BOM_PRES BOM_TNUM BOM_CI BOM_RMW BOM_R34_NE BOM_R34_SE BOM_R34_SW BOM_R34_NW BOM_R50_NE BOM_R50_SE BOM_R50_SW BOM_R50_NW BOM_R64_NE BOM_R64_SE BOM_R64_SW BOM_R64_NW BOM_ROCI BOM_POCI BOM_EYE BOM_POS_METHOD BOM_PRES_METHOD NADI_LAT NADI_LON NADI_CAT NADI_WIND NADI_PRES WELLINGTON_LAT WELLINGTON_LON WELLINGTON_WIND WELLINGTON_PRES DS824_LAT DS824_LON DS824_STAGE DS824_WIND DS824_PRES TD9636_LAT TD9636_LON TD9636_STAGE TD9636_WIND TD9636_PRES TD9635_LAT TD9635_LON TD9635_WIND TD9635_PRES TD9635_ROCI NEUMANN_LAT NEUMANN_LON NEUMANN_CLASS NEUMANN_WIND NEUMANN_PRES MLC_LAT MLC_LON MLC_CLASS MLC_WIND MLC_PRES USA_GUST BOM_GUST BOM_GUST_PER REUNION_GUST REUNION_GUST_PER USA_SEAHGT USA_SEARAD_NE USA_SEARAD_SE USA_SEARAD_SW USA_SEARAD_NW STORM_SPEED STORM_DIR
1901252N18309 1901 29 NA NA NOT_NAMED 1901-09-09 06:00:00 TS 17.6000 -50.7000 35 hurdat_atl main 1352 1293 O_____________ hurdat_atl AL081901 17.6000 -50.7000 TS 35 0 13 264
1901252N18309 1901 29 NA NA NOT_NAMED 1901-09-09 09:00:00 TS 17.5381 -51.3652 main 1284 1233 P_____________ AL081901 17.5381 -51.3652 TS 35 0 12 265
1901252N18309 1901 29 NA NA NOT_NAMED 1901-09-09 12:00:00 TS 17.5000 -52.0000 35 hurdat_atl main 1233 1183 O_____________ hurdat_atl AL081901 17.5000 -52.0000 TS 35 0 12 268
1901252N18309 1901 29 NA NA NOT_NAMED 1901-09-09 15:00:00 TS 17.4996 -52.5923 main 1183 1134 P_____________ AL081901 17.4996 -52.5923 TS 35 0 11 270
1901252N18309 1901 29 NA NA NOT_NAMED 1901-09-09 18:00:00 TS 17.5000 -53.2000 35 hurdat_atl main 1134 1087 O_____________ hurdat_atl AL081901 17.5000 -53.2000 TS 35 0 12 268
1901252N18309 1901 29 NA NA NOT_NAMED 1901-09-09 21:00:00 TS 17.4499 -53.8851 main 1071 1019 P_____________ AL081901 17.4499 -53.8851 TS 35 0 13 266
1901252N18309 1901 29 NA NA NOT_NAMED 1901-09-10 00:00:00 TS 17.4000 -54.6000 35 hurdat_atl main 1019 969 O_____________ hurdat_atl AL081901 17.4000 -54.6000 TS 35 0 14 268
1901252N18309 1901 29 NA NA NOT_NAMED 1901-09-10 03:00:00 TS 17.3998 -55.3073 main 969 923 P_____________ AL081901 17.3998 -55.3073 TS 35 0 13 270
1901252N18309 1901 29 NA NA NOT_NAMED 1901-09-10 06:00:00 TS 17.4000 -56.0000 35 hurdat_atl main 923 878 O_____________ hurdat_atl AL081901 17.4000 -56.0000 TS 35 0 13 267
1901252N18309 1901 29 NA NA NOT_NAMED 1901-09-10 09:00:00 TS 17.3421 -56.6427 main 878 839 P_____________ AL081901 17.3421 -56.6427 TS 35 0 12 265
1901252N18309 1901 29 NA NA NOT_NAMED 1901-09-10 12:00:00 TS 17.3000 -57.3000 35 hurdat_atl main 839 806 O_____________ hurdat_atl AL081901 17.3000 -57.3000 TS 35 0 13 270
1901252N18309 1901 29 NA NA NOT_NAMED 1901-09-10 15:00:00 TS 17.3350 -58.0499 main 806 725 P_____________ AL081901 17.3350 -58.0499 TS 35 0 14 274
1901252N18309 1901 29 NA NA NOT_NAMED 1901-09-10 18:00:00 TS 17.4000 -58.8000 35 hurdat_atl main 725 662 O_____________ hurdat_atl AL081901 17.4000 -58.8000 TS 35 0 14 275
1901252N18309 1901 29 NA NA NOT_NAMED 1901-09-10 21:00:00 TS 17.4497 -59.4725 main 652 587 P_____________ AL081901 17.4497 -59.4725 TS 35 0 12 275
1901252N18309 1901 29 NA NA NOT_NAMED 1901-09-11 00:00:00 TS 17.5000 -60.1000 35 hurdat_atl main 587 524 O_____________ hurdat_atl AL081901 17.5000 -60.1000 TS 35 0 12 275
1901252N18309 1901 29 NA NA NOT_NAMED 1901-09-11 03:00:00 TS 17.5421 -60.6926 main 524 459 P_____________ AL081901 17.5421 -60.6926 TS 37 0 11 275
1901252N18309 1901 29 NA CS NOT_NAMED 1901-09-11 06:00:00 TS 17.6000 -61.3000 40 hurdat_atl main 459 395 O_____________ hurdat_atl AL081901 17.6000 -61.3000 TS 40 0 12 277
1901252N18309 1901 29 NA CS NOT_NAMED 1901-09-11 09:00:00 TS 17.6847 -61.9701 main 384 309 P_____________ AL081901 17.6847 -61.9701 TS 42 0 14 279
1901252N18309 1901 29 NA CS NOT_NAMED 1901-09-11 12:00:00 TS 17.8000 -62.7000 45 hurdat_atl main 309 224 O_____________ hurdat_atl AL081901 17.8000 -62.7000 TS 45 0 15 280
1901252N18309 1901 29 NA CS NOT_NAMED 1901-09-11 15:00:00 TS 17.9426 -63.5074 main 224 137 P_____________ AL081901 17.9426 -63.5074 TS 47 0 16 281
1901252N18309 1901 29 NA CS NOT_NAMED 1901-09-11 18:00:00 TS 18.1000 -64.3000 50 hurdat_atl main 137 73 O_____________ hurdat_atl AL081901 18.1000 -64.3000 TS 50 0 14 283
1901252N18309 1901 29 NA CS NOT_NAMED 1901-09-11 21:00:00 TS 18.2645 -64.9725 main 63 0 P_____________ AL081901 18.2645 -64.9725 TS 50 0 13 284
1901252N18309 1901 29 NA CS NOT_NAMED 1901-09-12 00:00:00 TS 18.4000 -65.6000 50 hurdat_atl main 0 0 O_____________ hurdat_atl AL081901 18.4000 -65.6000 TS 50 0 12 279
1901252N18309 1901 29 NA NA NOT_NAMED 1901-09-12 03:00:00 TS 18.4648 -66.2502 main 11 11 P_____________ AL081901 18.4648 -66.2502 TS 50 0 12 275
1901252N18309 1901 29 NA NA NOT_NAMED 1901-09-12 06:00:00 TS 18.5000 -66.9000 50 hurdat_atl main 11 11 O_____________ hurdat_atl AL081901 18.5000 -66.9000 TS 50 0 12 274
1901252N18309 1901 29 NA NA NOT_NAMED 1901-09-12 09:00:00 TS 18.5497 -67.5425 main 23 10 P_____________ AL081901 18.5497 -67.5425 TS 50 0 12 275
1901252N18309 1901 29 NA CS NOT_NAMED 1901-09-12 12:00:00 TS 18.6000 -68.2000 50 hurdat_atl main 10 0 O_____________ hurdat_atl AL081901 18.6000 -68.2000 TS 50 0 13 274
1901252N18309 1901 29 NA NA NOT_NAMED 1901-09-12 15:00:00 TS 18.6498 -68.8925 main 0 0 P_____________ AL081901 18.6498 -68.8925 TS 45 0 13 274
1901252N18309 1901 29 NA NA NOT_NAMED 1901-09-12 18:00:00 TS 18.7000 -69.6000 40 hurdat_atl main 0 0 O_____________ hurdat_atl AL081901 18.7000 -69.6000 TS 40 0 13 274
1901252N18309 1901 29 NA NA NOT_NAMED 1901-09-12 21:00:00 TS 18.7496 -70.2851 main 0 0 P_____________ AL081901 18.7496 -70.2851 TS 37 0 13 274
1901252N18309 1901 29 NA NA NOT_NAMED 1901-09-13 00:00:00 TS 18.8000 -71.0000 35 hurdat_atl main 0 0 O_____________ hurdat_atl AL081901 18.8000 -71.0000 TS 35 0 14 274
1901252N18309 1901 29 NA NA NOT_NAMED 1901-09-13 03:00:00 TS 18.8497 -71.7776 main 0 0 P_____________ AL081901 18.8497 -71.7776 TS 35 0 15 274
1901252N18309 1901 29 NA NA NOT_NAMED 1901-09-13 06:00:00 TS 18.9000 -72.6000 35 hurdat_atl main 0 0 O_____________ hurdat_atl AL081901 18.9000 -72.6000 TS 35 0 16 274
1901252N18309 1901 29 NA CS NOT_NAMED 1901-09-13 09:00:00 TS 18.9500 -73.4650 main 59 44 P_____________ AL081901 18.9500 -73.4650 TS 40 0 16 274
1901252N18309 1901 29 NA CS NOT_NAMED 1901-09-13 12:00:00 TS 19.0000 -74.3000 45 hurdat_atl main 44 44 O_____________ hurdat_atl AL081901 19.0000 -74.3000 TS 45 0 15 274
1901252N18309 1901 29 NA CS NOT_NAMED 1901-09-13 15:00:00 TS 19.0495 -75.0300 main 77 77 P_____________ AL081901 19.0495 -75.0300 TS 47 0 13 274
1901252N18309 1901 29 NA CS NOT_NAMED 1901-09-13 18:00:00 TS 19.1000 -75.7000 50 hurdat_atl main 90 90 O_____________ hurdat_atl AL081901 19.1000 -75.7000 TS 50 0 13 274
1901252N18309 1901 29 NA CS NOT_NAMED 1901-09-13 21:00:00 TS 19.1422 -76.3576 main 94 78 P_____________ AL081901 19.1422 -76.3576 TS 52 0 12 275
1901252N18309 1901 29 NA CS NOT_NAMED 1901-09-14 00:00:00 TS 19.2000 -77.0000 55 hurdat_atl main 78 56 O_____________ hurdat_atl AL081901 19.2000 -77.0000 TS 55 0 12 277
1901252N18309 1901 29 NA CS NOT_NAMED 1901-09-14 03:00:00 TS 19.2848 -77.6576 main 55 55 P_____________ AL081901 19.2848 -77.6576 TS 57 0 12 279
1901252N18309 1901 29 NA CS NOT_NAMED 1901-09-14 06:00:00 TS 19.4000 -78.3000 60 hurdat_atl main 77 77 O_____________ hurdat_atl AL081901 19.4000 -78.3000 TS 60 0 12 282
1901252N18309 1901 29 NA CS NOT_NAMED 1901-09-14 09:00:00 TS 19.5348 -78.9151 main 130 130 P_____________ AL081901 19.5348 -78.9151 TS 62 0 12 285
1901252N18309 1901 29 NA CS NOT_NAMED 1901-09-14 12:00:00 TS 19.7000 -79.5000 65 hurdat_atl main 178 178 O_____________ hurdat_atl AL081901 19.7000 -79.5000 HU 65 1 11 289
1901252N18309 1901 29 NA CS NOT_NAMED 1901-09-14 15:00:00 TS 19.8921 -80.0426 main 197 186 P_____________ AL081901 19.8921 -80.0426 HU 65 1 11 291
1901252N18309 1901 29 NA CS NOT_NAMED 1901-09-14 18:00:00 TS 20.1000 -80.6000 65 hurdat_atl main 189 187 O_____________ hurdat_atl AL081901 20.1000 -80.6000 HU 65 1 12 290
1901252N18309 1901 29 NA CS NOT_NAMED 1901-09-14 21:00:00 TS 20.2923 -81.2278 main 190 137 P_____________ AL081901 20.2923 -81.2278 HU 67 1 13 288
1901252N18309 1901 29 NA CS NOT_NAMED 1901-09-15 00:00:00 TS 20.5000 -81.9000 70 hurdat_atl main 137 80 O_____________ hurdat_atl AL081901 20.5000 -81.9000 HU 70 1 14 289
1901252N18309 1901 29 NA CS NOT_NAMED 1901-09-15 03:00:00 TS 20.7425 -82.6075 main 80 56 P_____________ AL081901 20.7425 -82.6075 HU 70 1 14 291
1901252N18309 1901 29 NA CS NOT_NAMED 1901-09-15 06:00:00 TS 21.0000 -83.3000 70 hurdat_atl main 63 60 O_____________ hurdat_atl AL081901 21.0000 -83.3000 HU 70 1 13 292
1901252N18309 1901 29 NA CS NOT_NAMED 1901-09-15 09:00:00 TS 21.2497 -83.9227 main 78 33 P_____________ AL081901 21.2497 -83.9227 HU 70 1 12 294
1901252N18309 1901 29 NA CS NOT_NAMED 1901-09-15 12:00:00 TS 21.5000 -84.5000 70 hurdat_atl main 33 15 O_____________ hurdat_atl AL081901 21.5000 -84.5000 HU 70 1 12 295
1901252N18309 1901 29 NA CS NOT_NAMED 1901-09-15 15:00:00 TS 21.7424 -85.0727 main 24 15 P_____________ AL081901 21.7424 -85.0727 HU 67 1 11 296
1901252N18309 1901 29 NA GM NOT_NAMED 1901-09-15 18:00:00 TS 22.0000 -85.6000 65 hurdat_atl main 62 62 O_____________ hurdat_atl AL081901 22.0000 -85.6000 HU 65 1 11 300
1901252N18309 1901 29 NA GM NOT_NAMED 1901-09-15 21:00:00 TS 22.2848 -86.0727 main 121 121 P_____________ AL081901 22.2848 -86.0727 HU 62 0 10 306
1901252N18309 1901 29 NA GM NOT_NAMED 1901-09-16 00:00:00 TS 22.6000 -86.5000 60 hurdat_atl main 133 133 O_____________ hurdat_atl AL081901 22.6000 -86.5000 TS 60 0 10 309
1901252N18309 1901 29 NA GM NOT_NAMED 1901-09-16 03:00:00 TS 22.9199 -86.9153 main 156 156 P_____________ AL081901 22.9199 -86.9153 TS 57 0 10 314
1901252N18309 1901 29 NA GM NOT_NAMED 1901-09-16 06:00:00 TS 23.3000 -87.3000 55 hurdat_atl main 202 202 O_____________ hurdat_atl AL081901 23.3000 -87.3000 TS 55 0 11 321
1901252N18309 1901 29 NA GM NOT_NAMED 1901-09-16 09:00:00 TS 23.7775 -87.6725 main 257 257 P_____________ AL081901 23.7775 -87.6725 TS 52 0 12 327
1901252N18309 1901 29 NA GM NOT_NAMED 1901-09-16 12:00:00 TS 24.3000 -88.0000 50 hurdat_atl main 312 312 O_____________ hurdat_atl AL081901 24.3000 -88.0000 TS 50 0 12 330
1901252N18309 1901 29 NA GM NOT_NAMED 1901-09-16 15:00:00 TS 24.7850 -88.3024 main 368 368 P_____________ AL081901 24.7850 -88.3024 TS 50 0 11 336
1901252N18309 1901 29 NA GM NOT_NAMED 1901-09-16 18:00:00 TS 25.3000 -88.5000 50 hurdat_atl main 417 349 O_____________ hurdat_atl AL081901 25.3000 -88.5000 TS 50 0 11 348
1901252N18309 1901 29 NA GM NOT_NAMED 1901-09-16 21:00:00 TS 25.8849 -88.5675 main 349 285 P_____________ AL081901 25.8849 -88.5675 TS 50 0 12 1
1901252N18309 1901 29 NA GM NOT_NAMED 1901-09-17 00:00:00 TS 26.5000 -88.5000 50 hurdat_atl main 285 222 O_____________ hurdat_atl AL081901 26.5000 -88.5000 TS 50 0 12 9
1901252N18309 1901 29 NA GM NOT_NAMED 1901-09-17 03:00:00 TS 27.0925 -88.3449 main 226 174 P_____________ AL081901 27.0925 -88.3449 TS 50 0 13 17
1901252N18309 1901 29 NA GM NOT_NAMED 1901-09-17 06:00:00 TS 27.7000 -88.1000 50 hurdat_atl main 174 139 O_____________ hurdat_atl AL081901 27.7000 -88.1000 TS 50 0 13 20
1901252N18309 1901 29 NA GM NOT_NAMED 1901-09-17 09:00:00 TS 28.3424 -87.8297 main 147 134 P_____________ AL081901 28.3424 -87.8297 TS 50 0 14 22
1901252N18309 1901 29 NA GM NOT_NAMED 1901-09-17 12:00:00 TS 29.0000 -87.5000 50 hurdat_atl main 142 67 O_____________ hurdat_atl AL081901 29.0000 -87.5000 TS 50 0 16 25
1901252N18309 1901 29 NA GM NOT_NAMED 1901-09-17 15:00:00 TS 29.7666 -87.0558 main 56 11 P_____________ AL081901 29.7666 -87.0558 TS 50 0 15 28
1901252N18309 1901 29 NA GM NOT_NAMED 1901-09-17 18:00:00 TS 30.3000 -86.7000 50 hurdat_atl main 11 0 O_____________ hurdat_atl AL081901 30.3000 -86.7000 TS 50 0 9 32
1901252N18309 1901 29 NA GM NOT_NAMED 1901-09-17 20:00:00 TS 30.4000 -86.6000 50 hurdat_atl main 0 0 O_____________ hurdat_atl AL081901 30.4000 -86.6000 L TS 50 0 8 41
1901252N18309 1901 29 NA NA NOT_NAMED 1901-09-17 21:00:00 TS 30.6160 -86.3860 main 0 0 P_____________ AL081901 30.6160 -86.3860 TS 47 0 25 43
1901252N18309 1901 29 NA NA NOT_NAMED 1901-09-18 00:00:00 TS 31.6000 -85.3000 40 hurdat_atl main 0 0 O_____________ hurdat_atl AL081901 31.6000 -85.3000 TS 40 0 23 48
1901252N18309 1901 29 NA NA NOT_NAMED 1901-09-18 03:00:00 TS 32.1592 -84.3646 main 0 0 P_____________ AL081901 32.1592 -84.3646 TS 37 0 18 61
1901252N18309 1901 29 NA NA NOT_NAMED 1901-09-18 06:00:00 TS 32.5000 -83.4000 35 hurdat_atl main 0 0 O_____________ hurdat_atl AL081901 32.5000 -83.4000 TS 35 0 17 71
1901252N18309 1901 29 NA NA NOT_NAMED 1901-09-18 09:00:00 TS 32.7220 -82.4661 main 0 0 P_____________ AL081901 32.7220 -82.4661 TS 35 0 19 75
1901252N18309 1901 29 NA NA NOT_NAMED 1901-09-18 12:00:00 TS 33.0000 -81.2000 35 hurdat_atl main 0 0 O_____________ hurdat_atl AL081901 33.0000 -81.2000 TS 35 0 29 74
1901252N18309 1901 29 NA NA NOT_NAMED 1901-09-18 15:00:00 TS 33.5252 -79.1479 main 0 0 P_____________ AL081901 33.5252 -79.1479 TS 35 0 37 71
1901252N18309 1901 29 NA NA NOT_NAMED 1901-09-18 18:00:00 TS 34.2000 -77.0000 35 hurdat_atl main 49 24 O_____________ hurdat_atl AL081901 34.2000 -77.0000 TS 35 0 34 65
1901252N18309 1901 29 NA NA NOT_NAMED 1901-09-18 21:00:00 TS 34.9889 -75.4127 main 72 66 P_____________ AL081901 34.9889 -75.4127 TS 37 0 28 55
1901252N18309 1901 29 NA NA NOT_NAMED 1901-09-19 00:00:00 ET 35.8000 -74.2000 40 hurdat_atl main 116 116 O_____________ hurdat_atl AL081901 35.8000 -74.2000 EX 40 -4 22 49
1901252N18309 1901 29 NA NA NOT_NAMED 1901-09-19 03:00:00 ET 36.4458 -73.3206 main 208 208 P_____________ AL081901 36.4458 -73.3206 EX 42 -4 19 46
1901252N18309 1901 29 NA NA NOT_NAMED 1901-09-19 06:00:00 ET 37.1000 -72.5000 45 hurdat_atl main 264 264 O_____________ hurdat_atl AL081901 37.1000 -72.5000 EX 45 -4 21 48
1901252N18309 1901 29 NA NA NOT_NAMED 1901-09-19 09:00:00 ET 37.8622 -71.3307 main 314 314 P_____________ AL081901 37.8622 -71.3307 EX 47 -4 25 51
1901252N18309 1901 29 NA NA NOT_NAMED 1901-09-19 12:00:00 ET 38.7000 -70.0000 50 hurdat_atl main 317 264 O_____________ hurdat_atl AL081901 38.7000 -70.0000 EX 50 -4 27 51
1901252N18309 1901 29 NA NA NOT_NAMED 1901-09-19 15:00:00 ET 39.5904 -68.6174 main 261 252 P_____________ AL081901 39.5904 -68.6174 EX 50 -4 28 50
1901252N18309 1901 29 NA NA NOT_NAMED 1901-09-19 18:00:00 ET 40.5000 -67.2000 50 hurdat_atl main 269 O_____________ hurdat_atl AL081901 40.5000 -67.2000 EX 50 -4 28 50

About IBTrACS Database

This database is a web-friendly format of International Best Track Archive for Climate Stewardship (IBTrACS), a global best track data archive curated by NOAA dating back to 1842.

Updated: 2021-11-26